Time;durP1;ratioP1;P1;durP2;ratioP2;P2;SDS_P1;SDS_P2;PMS_P1;PMS_P2;Temp;Humidity;BMP_temperature;BMP_pressure;BME280_temperature;BME280_humidity;BME280_pressure;Samples;Min_cycle;Max_cycle;Signal;HPM_P1;HPM_P2
2021/08/24 00:02:06;;;;;;;7.05;4.18;;;14.80;99.90;;;;;;5049060;28;20048;-80
2021/08/24 00:04:34;;;;;;;6.70;3.58;;;14.80;99.90;;;;;;5048073;28;20041;-81
2021/08/24 00:07:02;;;;;;;11.18;5.00;;;14.60;99.90;;;;;;5047441;28;20045;-80
2021/08/24 00:09:32;;;;;;;15.82;4.20;;;14.80;99.90;;;;;;5050986;28;20045;-80
2021/08/24 00:12:00;;;;;;;5.47;3.53;;;14.80;99.90;;;;;;5055826;28;20046;-80
2021/08/24 00:14:30;;;;;;;6.13;3.58;;;14.80;99.90;;;;;;5050426;28;20259;-80
2021/08/24 00:16:58;;;;;;;9.57;4.03;;;14.80;99.90;;;;;;5036693;28;20502;-80
2021/08/24 00:19:27;;;;;;;8.85;4.15;;;14.70;99.90;;;;;;5060561;28;20042;-79
2021/08/24 00:21:54;;;;;;;13.57;4.63;;;14.70;99.90;;;;;;5041686;28;20048;-79
2021/08/24 00:24:22;;;;;;;8.43;4.05;;;14.70;99.90;;;;;;5015696;28;20064;-80
2021/08/24 00:26:51;;;;;;;17.80;6.10;;;14.70;99.90;;;;;;5045057;28;20048;-80
2021/08/24 00:29:18;;;;;;;11.73;4.60;;;14.60;99.90;;;;;;5066343;28;20041;-80
2021/08/24 00:31:46;;;;;;;9.60;3.60;;;14.60;99.90;;;;;;5046649;28;20038;-81
2021/08/24 00:34:14;;;;;;;9.88;4.43;;;14.60;99.90;;;;;;5058146;28;20057;-80
2021/08/24 00:36:42;;;;;;;10.38;5.22;;;14.60;99.90;;;;;;5037377;28;20065;-80
2021/08/24 01:10:41;;;;;;;13.82;4.93;;;14.70;99.90;;;;;;5040715;28;20405;-79
2021/08/24 01:13:15;;;;;;;16.30;6.55;;;14.80;99.90;;;;;;5026307;28;20061;-80
2021/08/24 01:15:59;;;;;;;14.85;5.28;;;14.80;99.90;;;;;;5038378;28;20067;-79
2021/08/24 01:18:39;;;;;;;13.02;4.82;;;14.80;99.90;;;;;;5042298;28;20288;-80
2021/08/24 01:21:24;;;;;;;11.07;5.07;;;14.90;99.90;;;;;;5032613;28;20285;-80
2021/08/24 01:23:59;;;;;;;9.75;5.00;;;14.90;99.90;;;;;;5037173;28;20045;-80
2021/08/24 01:26:33;;;;;;;11.77;5.18;;;14.90;99.90;;;;;;5042896;28;20064;-80
2021/08/24 01:29:19;;;;;;;10.82;5.90;;;15.00;99.90;;;;;;5029113;28;20383;-79
2021/08/24 01:32:24;;;;;;;12.20;5.50;;;15.00;99.90;;;;;;5051652;28;20077;-80
2021/08/24 01:35:24;;;;;;;12.05;5.25;;;15.00;99.90;;;;;;5018555;28;20048;-79
2021/08/24 01:37:58;;;;;;;12.43;5.18;;;15.10;99.90;;;;;;5036427;28;20049;-80
2021/08/24 01:40:41;;;;;;;12.68;5.47;;;15.10;99.90;;;;;;5045009;28;20045;-80
2021/08/24 01:43:14;;;;;;;16.13;5.13;;;15.10;99.90;;;;;;5041807;28;20068;-80
2021/08/24 01:45:54;;;;;;;12.05;6.18;;;15.20;99.90;;;;;;5043102;28;20055;-80
2021/08/24 01:48:38;;;;;;;15.50;6.03;;;15.20;99.90;;;;;;5042263;28;20048;-80
2021/08/24 01:51:14;;;;;;;16.08;6.53;;;15.20;99.90;;;;;;5054993;28;20037;-81
2021/08/24 01:53:49;;;;;;;18.45;7.40;;;15.20;99.90;;;;;;5044368;28;20033;-79
2021/08/24 01:56:22;;;;;;;11.32;5.25;;;15.20;99.90;;;;;;5042052;28;20053;-80
2021/08/24 01:59:03;;;;;;;17.33;7.10;;;15.20;99.90;;;;;;5029092;28;20045;-80
2021/08/24 02:01:43;;;;;;;11.73;6.43;;;15.20;99.90;;;;;;5033128;28;20049;-81
2021/08/24 02:04:18;;;;;;;21.48;8.13;;;15.20;99.90;;;;;;5032175;28;20058;-79
2021/08/24 02:06:49;;;;;;;18.08;6.53;;;15.20;99.90;;;;;;5038085;28;20048;-81
2021/08/24 02:09:31;;;;;;;16.20;6.13;;;15.20;99.90;;;;;;5049825;28;20049;-81
2021/08/24 02:12:03;;;;;;;13.82;6.50;;;15.20;99.90;;;;;;5042088;28;20050;-82
2021/08/24 02:14:33;;;;;;;;;;;15.20;99.90;;;;;;5045667;28;20053;-81
2021/08/24 02:17:07;;;;;;;19.52;5.68;;;15.10;99.90;;;;;;5008584;28;19921;-81
2021/08/24 02:19:46;;;;;;;19.50;8.77;;;15.10;99.90;;;;;;5040125;28;20050;-79
2021/08/24 02:22:27;;;;;;;17.92;6.88;;;15.10;99.90;;;;;;5017548;28;20042;-79
2021/08/24 02:25:25;;;;;;;20.23;6.22;;;15.00;99.90;;;;;;5043884;28;20061;-79
2021/08/24 02:28:07;;;;;;;15.25;7.50;;;14.90;99.90;;;;;;5050555;28;20050;-79
2021/08/24 02:30:53;;;;;;;13.75;6.13;;;14.90;99.90;;;;;;5012721;28;20143;-79
2021/08/24 02:33:25;;;;;;;16.08;7.18;;;14.80;99.90;;;;;;5038161;28;20045;-80
2021/08/24 02:36:02;;;;;;;19.25;6.68;;;14.80;99.90;;;;;;5043806;28;20061;-80
2021/08/24 02:38:36;;;;;;;18.25;7.13;;;14.80;99.90;;;;;;5038639;28;20056;-81
2021/08/24 02:41:13;;;;;;;21.85;7.68;;;14.70;99.90;;;;;;5014054;28;20050;-79
2021/08/24 02:44:12;;;;;;;19.92;8.43;;;14.60;99.90;;;;;;5041798;28;20045;-78
2021/08/24 02:46:44;;;;;;;23.92;7.95;;;14.60;99.90;;;;;;5034625;28;20067;-80
2021/08/24 02:49:28;;;;;;;17.52;7.20;;;14.50;99.90;;;;;;5042539;28;20347;-79
2021/08/24 02:51:58;;;;;;;18.17;7.53;;;14.50;99.90;;;;;;5024409;28;20049;-80
2021/08/24 02:54:32;;;;;;;24.67;8.75;;;14.50;99.90;;;;;;5044436;28;20060;-80
2021/08/24 02:57:01;;;;;;;14.55;6.70;;;14.50;99.90;;;;;;5011795;28;20058;-80
2021/08/24 02:59:29;;;;;;;20.10;7.03;;;14.50;99.90;;;;;;5044568;28;20053;-79
2021/08/24 03:02:06;;;;;;;35.60;8.50;;;14.50;99.90;;;;;;5022057;28;20042;-81
2021/08/24 03:04:38;;;;;;;21.20;8.30;;;14.40;99.90;;;;;;5026369;28;20045;-80
2021/08/24 03:07:26;;;;;;;25.23;8.88;;;14.40;99.90;;;;;;5042351;28;20041;-79
2021/08/24 03:09:58;;;;;;;16.75;7.63;;;14.40;99.90;;;;;;5041700;28;20685;-79
2021/08/24 03:12:37;;;;;;;16.13;7.72;;;14.40;99.90;;;;;;5033108;28;20048;-79
2021/08/24 03:15:19;;;;;;;15.77;7.13;;;14.30;99.90;;;;;;5041316;28;20045;-80
2021/08/24 03:17:53;;;;;;;18.65;9.63;;;14.30;99.90;;;;;;5034819;28;20049;-80
2021/08/24 03:20:27;;;;;;;13.52;7.75;;;14.30;99.90;;;;;;5024965;28;20057;-80
2021/08/24 03:22:57;;;;;;;21.17;7.70;;;14.30;99.90;;;;;;5034505;28;20059;-80
2021/08/24 03:25:27;;;;;;;23.45;8.10;;;14.30;99.90;;;;;;5042428;28;20056;-79
2021/08/24 03:27:55;;;;;;;22.77;9.38;;;14.30;99.90;;;;;;5029453;28;20054;-81
2021/08/24 03:30:24;;;;;;;20.50;9.00;;;14.20;99.90;;;;;;5025975;28;20049;-80
2021/08/24 03:32:52;;;;;;;16.92;7.10;;;14.30;99.90;;;;;;5033247;28;20064;-79
2021/08/24 03:35:22;;;;;;;21.52;7.75;;;14.20;99.90;;;;;;5025133;28;20050;-80
2021/08/24 03:37:50;;;;;;;17.88;8.02;;;14.20;99.90;;;;;;5048371;28;20068;-80
2021/08/24 03:40:22;;;;;;;14.90;6.95;;;14.20;99.90;;;;;;5027245;28;20054;-80
2021/08/24 03:42:51;;;;;;;24.65;9.25;;;14.00;99.90;;;;;;5018432;28;20058;-79
2021/08/24 03:45:18;;;;;;;22.50;8.68;;;14.10;99.90;;;;;;5036294;28;20049;-79
2021/08/24 03:47:46;;;;;;;17.67;8.27;;;14.10;99.90;;;;;;5038049;28;20041;-79
2021/08/24 03:50:15;;;;;;;16.60;7.93;;;14.10;99.90;;;;;;5025527;28;20056;-80
2021/08/24 03:52:45;;;;;;;16.20;7.03;;;14.10;99.90;;;;;;5009356;28;20132;-80
2021/08/24 03:55:13;;;;;;;18.83;6.63;;;14.10;99.90;;;;;;5041037;28;20049;-80
2021/08/24 03:57:42;;;;;;;15.45;7.25;;;14.00;99.90;;;;;;5042061;28;20045;-79
2021/08/24 04:00:11;;;;;;;18.63;7.90;;;14.00;99.90;;;;;;5038579;28;20050;-79
2021/08/24 04:02:42;;;;;;;21.02;7.35;;;14.00;99.90;;;;;;5038628;28;20057;-78
2021/08/24 04:05:12;;;;;;;;;;;14.00;99.90;;;;;;5047834;28;20068;-80
2021/08/24 04:07:46;;;;;;;21.67;9.27;;;14.00;99.90;;;;;;5046598;28;19920;-79
2021/08/24 04:10:16;;;;;;;21.88;8.10;;;13.90;99.90;;;;;;5040854;28;20340;-79
2021/08/24 04:12:44;;;;;;;24.00;7.07;;;13.90;99.90;;;;;;5017853;28;20049;-79
2021/08/24 04:15:15;;;;;;;18.80;7.30;;;13.90;99.90;;;;;;5021820;28;20042;-80
2021/08/24 04:17:43;;;;;;;22.13;9.50;;;13.90;99.90;;;;;;5052940;28;20053;-79
2021/08/24 04:20:13;;;;;;;20.33;7.30;;;13.90;99.90;;;;;;5038418;28;20050;-80
2021/08/24 04:22:43;;;;;;;16.58;7.05;;;13.90;99.90;;;;;;5032131;28;20053;-78
2021/08/24 04:25:13;;;;;;;16.67;7.35;;;13.90;99.90;;;;;;5042895;28;20049;-79
2021/08/24 04:27:41;;;;;;;17.27;6.82;;;13.80;99.90;;;;;;5044532;28;20064;-79
2021/08/24 04:30:09;;;;;;;15.30;7.22;;;13.80;99.90;;;;;;5032165;28;20053;-79
2021/08/24 04:32:42;;;;;;;17.90;7.07;;;13.80;99.90;;;;;;5042407;28;20057;-80
2021/08/24 04:35:11;;;;;;;19.35;7.15;;;13.80;99.90;;;;;;5039877;28;20038;-79
2021/08/24 04:37:44;;;;;;;25.08;7.88;;;13.80;99.90;;;;;;5038293;28;20410;-79
2021/08/24 04:40:17;;;;;;;21.63;7.80;;;13.80;99.90;;;;;;5026654;28;20042;-79
2021/08/24 04:42:47;;;;;;;14.23;7.82;;;13.70;99.90;;;;;;5045452;28;20067;-79
2021/08/24 04:45:15;;;;;;;19.40;7.70;;;13.70;99.90;;;;;;5042315;28;20052;-79
2021/08/24 04:47:43;;;;;;;17.00;7.82;;;13.70;99.90;;;;;;5026390;28;20048;-79
2021/08/24 04:50:16;;;;;;;18.85;8.65;;;13.70;99.90;;;;;;5038677;28;20053;-80
2021/08/24 04:52:44;;;;;;;19.95;7.93;;;13.60;99.90;;;;;;5045047;28;20045;-79
2021/08/24 04:55:12;;;;;;;15.73;8.00;;;13.60;99.90;;;;;;5045411;28;20060;-80
2021/08/24 04:57:40;;;;;;;20.75;8.40;;;13.60;99.90;;;;;;4999686;28;20383;-79
2021/08/24 05:00:09;;;;;;;17.17;7.28;;;13.60;99.90;;;;;;5043372;28;20050;-80
2021/08/24 05:02:38;;;;;;;18.90;7.68;;;13.60;99.90;;;;;;5044185;28;20041;-80
2021/08/24 05:05:08;;;;;;;16.88;7.57;;;13.50;99.90;;;;;;5038616;28;20045;-79
2021/08/24 05:07:38;;;;;;;18.33;6.97;;;13.50;99.90;;;;;;5026458;28;20058;-80
2021/08/24 05:10:07;;;;;;;19.67;8.85;;;13.60;99.90;;;;;;5041620;28;20042;-80
2021/08/24 05:12:44;;;;;;;16.25;6.80;;;13.50;99.90;;;;;;5042706;28;20041;-79
2021/08/24 05:15:17;;;;;;;18.90;7.45;;;13.50;99.90;;;;;;5023978;28;20050;-80
2021/08/24 05:17:50;;;;;;;21.20;7.38;;;13.50;99.90;;;;;;5033159;28;20038;-79
2021/08/24 05:20:19;;;;;;;21.33;7.45;;;13.50;99.90;;;;;;5038851;28;20056;-79
2021/08/24 05:22:48;;;;;;;21.15;7.53;;;13.50;99.90;;;;;;5033318;28;20041;-79
2021/08/24 05:25:20;;;;;;;17.10;8.35;;;13.50;99.90;;;;;;5025551;28;20447;-79
2021/08/24 05:27:48;;;;;;;25.42;7.63;;;13.50;99.90;;;;;;5027576;28;20045;-79
2021/08/24 05:30:22;;;;;;;20.02;7.78;;;13.50;99.90;;;;;;5025521;28;20050;-80
2021/08/24 05:32:52;;;;;;;19.40;7.20;;;13.50;99.90;;;;;;5034799;28;20573;-79
2021/08/24 05:35:21;;;;;;;15.13;6.07;;;13.50;99.90;;;;;;5013569;28;20096;-79
2021/08/24 05:37:49;;;;;;;12.77;6.45;;;13.60;99.90;;;;;;5040079;28;20537;-79
2021/08/24 05:40:18;;;;;;;17.10;7.53;;;13.70;99.90;;;;;;5041641;28;20049;-79
2021/08/24 05:42:47;;;;;;;17.60;7.10;;;13.60;99.90;;;;;;5032369;28;20061;-79
2021/08/24 05:45:15;;;;;;;18.05;6.38;;;13.70;99.90;;;;;;5029470;28;20042;-79
2021/08/24 05:47:49;;;;;;;14.93;6.32;;;13.70;99.90;;;;;;5022527;28;20741;-79
2021/08/24 05:50:21;;;;;;;17.98;9.07;;;13.70;99.90;;;;;;5033624;28;20057;-79
2021/08/24 05:52:50;;;;;;;20.23;6.95;;;13.70;99.90;;;;;;5035383;28;20050;-79
2021/08/24 05:55:19;;;;;;;22.15;8.88;;;13.70;99.90;;;;;;5026358;28;20053;-79
2021/08/24 05:57:52;;;;;;;17.40;7.85;;;13.70;99.90;;;;;;5025378;28;20054;-80
2021/08/24 06:00:21;;;;;;;17.08;7.30;;;13.80;99.90;;;;;;5021734;28;20068;-79
2021/08/24 06:02:49;;;;;;;25.88;8.90;;;13.80;99.90;;;;;;5039941;28;20052;-78
2021/08/24 06:05:17;;;;;;;21.75;8.38;;;13.80;99.90;;;;;;5019591;28;20054;-79
2021/08/24 06:07:45;;;;;;;24.25;8.18;;;13.80;99.90;;;;;;5040001;28;20053;-80
2021/08/24 06:10:13;;;;;;;13.88;6.97;;;13.80;99.90;;;;;;5042164;28;20045;-79
2021/08/24 06:12:41;;;;;;;17.50;7.25;;;13.90;99.90;;;;;;5043366;28;20049;-79
2021/08/24 06:15:09;;;;;;;17.42;8.10;;;13.90;99.90;;;;;;5042722;28;20567;-79
2021/08/24 06:17:37;;;;;;;16.75;7.22;;;13.90;99.90;;;;;;5041117;28;20049;-79
2021/08/24 06:20:06;;;;;;;19.10;7.80;;;14.00;99.90;;;;;;5041599;28;20057;-80
2021/08/24 06:22:35;;;;;;;15.40;7.55;;;14.10;99.90;;;;;;5038843;28;20049;-81
2021/08/24 06:25:04;;;;;;;18.15;9.00;;;14.10;99.90;;;;;;5023478;28;20056;-81
2021/08/24 06:27:32;;;;;;;14.15;7.45;;;14.20;99.90;;;;;;5031719;28;20056;-79
2021/08/24 06:30:00;;;;;;;19.42;7.18;;;14.30;99.90;;;;;;5036365;28;20037;-80
2021/08/24 06:32:36;;;;;;;17.42;6.60;;;14.40;99.90;;;;;;5035853;28;20053;-80
2021/08/24 06:35:05;;;;;;;15.30;7.43;;;14.40;99.90;;;;;;5024674;28;20053;-80
2021/08/24 06:37:34;;;;;;;19.20;7.30;;;14.50;99.90;;;;;;5029850;28;20064;-80
2021/08/24 06:40:04;;;;;;;10.77;5.63;;;14.50;99.90;;;;;;5036623;28;20054;-79
2021/08/24 06:42:50;;;;;;;18.17;7.28;;;14.60;99.90;;;;;;5015895;28;20054;-79
2021/08/24 06:45:23;;;;;;;20.67;6.82;;;14.70;99.90;;;;;;5027545;28;20477;-80
2021/08/24 06:47:51;;;;;;;18.08;6.90;;;14.70;99.90;;;;;;5004645;28;20050;-79
2021/08/24 06:50:21;;;;;;;18.08;6.93;;;14.80;99.90;;;;;;5021135;28;20045;-79
2021/08/24 06:52:50;;;;;;;18.17;6.15;;;14.80;99.90;;;;;;5037028;28;20411;-82
2021/08/24 06:55:19;;;;;;;24.63;6.85;;;14.90;99.90;;;;;;5021200;28;20064;-80
2021/08/24 06:57:47;;;;;;;22.08;6.57;;;15.00;99.90;;;;;;5025346;28;20053;-80
2021/08/24 07:00:20;;;;;;;16.45;6.30;;;15.10;99.90;;;;;;5037290;28;20050;-80
2021/08/24 07:02:49;;;;;;;25.13;9.23;;;15.20;99.90;;;;;;5023709;28;20426;-81
2021/08/24 07:05:20;;;;;;;27.27;7.65;;;15.30;99.90;;;;;;5031501;28;20064;-80
2021/08/24 07:07:48;;;;;;;16.42;7.13;;;15.40;99.90;;;;;;5039514;28;20056;-79
2021/08/24 07:10:21;;;;;;;15.00;6.22;;;15.50;99.90;;;;;;5024673;28;20052;-81
2021/08/24 07:12:49;;;;;;;14.93;6.55;;;15.50;99.90;;;;;;5005269;28;20053;-81
2021/08/24 07:15:20;;;;;;;14.45;6.13;;;15.60;99.90;;;;;;5022314;28;20050;-81
2021/08/24 07:17:53;;;;;;;16.73;5.78;;;15.70;99.90;;;;;;5033001;28;20056;-78
2021/08/24 07:20:24;;;;;;;12.27;5.03;;;14.80;99.90;;;;;;5037710;28;20061;-81
2021/08/24 07:22:57;;;;;;;13.45;5.32;;;15.80;99.90;;;;;;5033074;28;20053;-80
2021/08/24 07:25:27;;;;;;;13.90;5.50;;;15.90;99.90;;;;;;5019651;28;20061;-77
2021/08/24 07:27:55;;;;;;;19.95;6.68;;;16.00;99.90;;;;;;5029227;28;20037;-81
2021/08/24 07:30:32;;;;;;;12.68;5.55;;;16.00;99.90;;;;;;5038305;28;20048;-80
2021/08/24 07:32:59;;;;;;;19.65;6.57;;;16.10;99.90;;;;;;5031309;28;20057;-80
2021/08/24 07:35:27;;;;;;;30.85;7.97;;;16.20;99.90;;;;;;5036507;28;20050;-79
2021/08/24 07:37:55;;;;;;;19.13;4.72;;;16.30;99.90;;;;;;5018396;28;20064;-79
2021/08/24 07:40:24;;;;;;;14.13;5.30;;;16.30;99.90;;;;;;5030366;28;20060;-79
2021/08/24 07:42:59;;;;;;;14.65;4.90;;;16.40;99.90;;;;;;5025817;28;20045;-78
2021/08/24 07:45:27;;;;;;;19.75;5.85;;;16.50;99.90;;;;;;5038378;28;20423;-78
2021/08/24 07:47:56;;;;;;;18.27;5.38;;;16.70;99.90;;;;;;5039737;28;20037;-79
2021/08/24 07:50:25;;;;;;;16.73;5.32;;;16.70;99.90;;;;;;5033731;28;20053;-80
2021/08/24 07:53:22;;;;;;;19.88;5.15;;;16.80;99.90;;;;;;5017908;28;20057;-79
2021/08/24 07:55:51;;;;;;;17.73;5.57;;;16.80;99.90;;;;;;5030425;28;20056;-78
2021/08/24 07:58:20;;;;;;;15.00;4.35;;;16.90;99.90;;;;;;5033028;28;20064;-79
2021/08/24 08:00:48;;;;;;;10.98;4.38;;;17.00;99.90;;;;;;5038141;28;20045;-79
2021/08/24 08:03:20;;;;;;;13.02;4.53;;;17.00;99.90;;;;;;5032846;28;20843;-79
2021/08/24 08:05:55;;;;;;;13.70;4.10;;;17.00;99.90;;;;;;5037752;28;20049;-79
2021/08/24 08:08:25;;;;;;;18.58;6.22;;;17.10;99.90;;;;;;5029228;28;20045;-79
2021/08/24 08:10:56;;;;;;;16.13;5.15;;;17.20;99.90;;;;;;5029707;28;20419;-79
2021/08/24 08:13:28;;;;;;;15.63;5.90;;;17.30;99.90;;;;;;5024817;28;20049;-80
2021/08/24 08:15:56;;;;;;;21.20;4.50;;;17.40;99.90;;;;;;5028023;28;20601;-80
2021/08/24 08:18:24;;;;;;;13.73;4.90;;;17.40;99.90;;;;;;5036410;28;20049;-80
2021/08/24 08:20:52;;;;;;;18.33;5.13;;;17.40;99.90;;;;;;5028833;28;20054;-80
2021/08/24 08:23:21;;;;;;;21.63;4.82;;;17.50;99.90;;;;;;5022541;28;20050;-79
2021/08/24 08:25:58;;;;;;;17.83;4.35;;;17.50;99.90;;;;;;5049733;28;20041;-79
2021/08/24 08:28:34;;;;;;;23.10;5.72;;;18.20;99.90;;;;;;5033355;28;20043;-81
2021/08/24 08:31:04;;;;;;;23.42;4.95;;;17.60;99.90;;;;;;5037218;28;20049;-81
2021/08/24 08:33:33;;;;;;;17.63;4.38;;;17.60;99.90;;;;;;5032747;28;20054;-79
2021/08/24 08:36:01;;;;;;;11.05;4.00;;;17.60;99.90;;;;;;5027952;28;20499;-80
2021/08/24 08:38:29;;;;;;;15.98;4.15;;;17.70;99.90;;;;;;5032300;28;20053;-79
2021/08/24 08:41:23;;;;;;;16.05;3.83;;;17.80;99.90;;;;;;5030634;28;20554;-79
2021/08/24 08:44:01;;;;;;;16.70;3.72;;;17.90;99.90;;;;;;5032713;28;20056;-79
2021/08/24 08:46:48;;;;;;;23.42;5.47;;;18.00;99.90;;;;;;5032634;28;20049;-79
2021/08/24 08:49:57;;;;;;;15.60;3.45;;;18.10;99.90;;;;;;5038460;28;20033;-78
2021/08/24 08:52:33;;;;;;;13.57;4.20;;;18.30;99.90;;;;;;5015147;28;20058;-79
2021/08/24 08:55:10;;;;;;;20.05;4.63;;;18.30;99.90;;;;;;5037595;28;20045;-77
2021/08/24 08:58:16;;;;;;;16.20;3.88;;;18.40;99.90;;;;;;5029811;28;20053;-78
2021/08/24 09:01:05;;;;;;;15.98;4.30;;;18.50;99.90;;;;;;5034742;28;20042;-80
2021/08/24 09:03:50;;;;;;;23.30;3.95;;;18.50;99.90;;;;;;5022061;28;20053;-80
2021/08/24 09:06:23;;;;;;;15.98;4.78;;;18.50;99.90;;;;;;5036548;28;20330;-81
2021/08/24 09:08:57;;;;;;;13.68;3.78;;;18.50;99.90;;;;;;5041154;23;20367;-84
2021/08/24 09:11:50;;;;;;;18.33;3.67;;;18.50;99.90;;;;;;5011452;28;20061;-85
2021/08/24 09:14:35;;;;;;;11.45;4.68;;;18.60;99.90;;;;;;4999267;28;20061;-85
2021/08/24 09:17:31;;;;;;;11.30;3.22;;;18.60;99.90;;;;;;5012800;28;20037;-84
2021/08/24 09:20:20;;;;;;;14.13;4.65;;;18.70;99.90;;;;;;5013800;28;20042;-85
2021/08/24 09:22:49;;;;;;;22.05;4.43;;;18.80;99.90;;;;;;5016298;28;20052;-84
2021/08/24 09:25:43;;;;;;;10.95;4.60;;;18.90;99.90;;;;;;5025734;28;20041;-85
2021/08/24 09:28:25;;;;;;;15.60;3.80;;;18.80;99.90;;;;;;5022040;28;20041;-85
2021/08/24 09:30:53;;;;;;;15.63;3.58;;;18.80;99.90;;;;;;5016943;28;20058;-86
2021/08/24 09:33:23;;;;;;;20.88;5.45;;;18.80;99.90;;;;;;5015021;28;20055;-85
2021/08/24 09:35:54;;;;;;;7.78;3.38;;;18.80;99.90;;;;;;5030141;28;20052;-84
2021/08/24 09:38:27;;;;;;;9.38;3.55;;;18.80;99.90;;;;;;5014791;28;20057;-85
2021/08/24 09:41:21;;;;;;;17.02;4.43;;;18.80;99.90;;;;;;5023074;28;20050;-85
2021/08/24 09:43:54;;;;;;;10.13;3.17;;;18.90;99.90;;;;;;4997097;28;20049;-87
2021/08/24 09:46:35;;;;;;;9.52;3.28;;;19.00;99.90;;;;;;4999116;28;20058;-87
2021/08/24 09:49:26;;;;;;;10.38;3.55;;;19.00;99.90;;;;;;4998536;28;20346;-85
2021/08/24 09:52:00;;;;;;;15.48;4.80;;;19.10;99.90;;;;;;5000643;28;20053;-89
2021/08/24 09:54:40;;;;;;;11.65;3.30;;;19.10;99.90;;;;;;5017701;28;20046;-87
2021/08/24 09:57:35;;;;;;;12.45;3.28;;;19.20;99.90;;;;;;5000604;28;20050;-87
2021/08/24 10:00:18;;;;;;;14.35;3.63;;;19.30;99.90;;;;;;5017786;28;20053;-85
2021/08/24 10:02:50;;;;;;;15.40;4.07;;;19.30;99.90;;;;;;5015606;28;20049;-87
2021/08/24 10:05:28;;;;;;;12.40;2.72;;;19.50;99.90;;;;;;5006002;28;20050;-86
2021/08/24 10:08:32;;;;;;;10.90;2.88;;;19.60;99.90;;;;;;5024974;28;20362;-88
2021/08/24 10:11:33;;;;;;;10.70;3.70;;;19.90;99.90;;;;;;5015182;28;20061;-86
2021/08/24 10:14:35;;;;;;;8.02;2.88;;;20.10;99.90;;;;;;5010938;28;20060;-85
2021/08/24 10:17:23;;;;;;;10.50;2.47;;;20.20;99.90;;;;;;5013519;28;20433;-85
2021/08/24 10:19:52;;;;;;;10.10;3.42;;;20.20;99.90;;;;;;4993938;28;20037;-85
2021/08/24 10:22:33;;;;;;;6.13;3.00;;;20.20;99.90;;;;;;5016155;28;20057;-86
2021/08/24 10:25:17;;;;;;;10.23;3.08;;;20.30;99.90;;;;;;4987415;28;20508;-86
2021/08/24 10:28:11;;;;;;;8.98;2.70;;;20.40;99.90;;;;;;5010788;28;20045;-86
2021/08/24 10:30:51;;;;;;;15.10;2.92;;;20.40;99.90;;;;;;5014639;28;20050;-85
2021/08/24 10:33:24;;;;;;;14.25;3.10;;;20.50;99.90;;;;;;5019204;28;20054;-84
2021/08/24 10:36:09;;;;;;;10.48;2.95;;;20.60;99.90;;;;;;5028116;28;20049;-86
2021/08/24 10:38:42;;;;;;;10.45;2.10;;;20.70;99.90;;;;;;5000979;28;20049;-85
2021/08/24 10:41:24;;;;;;;9.10;3.47;;;20.90;99.90;;;;;;5014860;28;20392;-86
2021/08/24 10:43:59;;;;;;;6.32;2.40;;;21.10;99.90;;;;;;5015499;28;20060;-86
2021/08/24 10:46:29;;;;;;;6.35;2.35;;;21.20;99.90;;;;;;5014007;28;20049;-87
2021/08/24 10:48:58;;;;;;;7.13;2.15;;;21.20;99.90;;;;;;5017270;28;20041;-89
2021/08/24 10:51:40;;;;;;;6.18;2.30;;;21.20;99.90;;;;;;4999013;28;20062;-87
2021/08/24 10:54:26;;;;;;;14.13;2.78;;;21.10;99.40;;;;;;5016108;28;20511;-87
2021/08/24 10:57:26;;;;;;;11.93;2.67;;;21.10;99.80;;;;;;5016988;28;20034;-86
2021/08/24 11:00:10;;;;;;;12.63;3.00;;;21.20;99.80;;;;;;5016591;28;20512;-86
2021/08/24 11:02:58;;;;;;;7.43;3.13;;;21.20;99.50;;;;;;5013254;28;20041;-84
2021/08/24 11:09:16;;;;;;;6.82;2.20;;;21.30;99.10;;;;;;5031463;23;20048;-79
2021/08/24 11:11:56;;;;;;;8.05;2.58;;;21.60;98.80;;;;;;5019447;28;20346;-79
2021/08/24 11:15:07;;;;;;;10.40;3.33;;;21.90;99.00;;;;;;4989371;28;20486;-78
2021/08/24 11:17:57;;;;;;;9.32;2.10;;;22.10;98.10;;;;;;4987332;28;20052;-78
2021/08/24 11:20:51;;;;;;;8.05;2.63;;;22.20;97.50;;;;;;5021820;28;20056;-79
2021/08/24 11:23:47;;;;;;;9.80;2.30;;;22.30;97.50;;;;;;4991256;28;20060;-78
2021/08/24 11:26:36;;;;;;;16.30;3.50;;;22.20;97.00;;;;;;5022732;28;20049;-79
2021/08/24 11:29:29;;;;;;;8.77;2.05;;;22.20;97.00;;;;;;5001244;28;20065;-78
2021/08/24 11:32:19;;;;;;;14.48;2.58;;;22.30;96.80;;;;;;5000440;28;20050;-79
2021/08/24 11:34:55;;;;;;;6.13;2.45;;;22.30;96.80;;;;;;4984468;28;20042;-79
2021/08/24 11:37:57;;;;;;;7.88;1.73;;;22.40;96.70;;;;;;4986105;28;20046;-79
2021/08/24 11:40:41;;;;;;;12.68;2.20;;;22.30;96.60;;;;;;5021148;28;20058;-79
2021/08/24 11:43:38;;;;;;;15.88;2.85;;;22.20;96.30;;;;;;5019722;28;20064;-79
2021/08/24 11:46:35;;;;;;;6.45;2.35;;;22.20;96.20;;;;;;4986390;28;20061;-79
2021/08/24 11:49:28;;;;;;;7.40;2.55;;;22.20;97.10;;;;;;5002745;28;20045;-79
2021/08/24 11:52:15;;;;;;;9.77;2.30;;;22.20;96.50;;;;;;5016964;28;20045;-79
2021/08/24 11:55:16;;;;;;;10.82;2.25;;;22.20;96.20;;;;;;5018547;28;20052;-79
2021/08/24 11:58:20;;;;;;;12.30;3.25;;;22.30;95.80;;;;;;4990360;28;20058;-78
2021/08/24 12:00:58;;;;;;;10.07;2.90;;;22.30;95.80;;;;;;4997382;28;20046;-78
2021/08/24 12:03:26;;;;;;;8.88;2.70;;;22.40;96.20;;;;;;4999914;28;20050;-77
2021/08/24 12:06:06;;;;;;;7.10;2.95;;;22.60;96.10;;;;;;4983449;28;20046;-78
2021/08/24 12:08:56;;;;;;;11.95;2.83;;;22.70;95.20;;;;;;4988561;28;20069;-79
2021/08/24 12:11:45;;;;;;;8.32;2.63;;;22.80;95.60;;;;;;5019499;28;20054;-78
2021/08/24 12:14:25;;;;;;;8.88;1.92;;;23.00;95.20;;;;;;5001225;28;20038;-79
2021/08/24 12:17:01;;;;;;;7.05;2.30;;;23.20;94.70;;;;;;5000831;28;20052;-79
2021/08/24 12:19:33;;;;;;;10.15;2.55;;;23.40;94.20;;;;;;5018947;28;20046;-79
2021/08/24 12:22:54;;;;;;;7.35;1.95;;;23.50;94.20;;;;;;5017049;28;20069;-79
2021/08/24 12:25:45;;;;;;;12.73;2.95;;;23.60;94.10;;;;;;4958217;29;20047;-76
2021/08/24 12:28:16;;;;;;;11.27;2.25;;;23.80;93.80;;;;;;4958583;29;20059;-79
2021/08/24 12:30:59;;;;;;;9.98;2.50;;;23.90;94.20;;;;;;4992785;28;20050;-78
2021/08/24 12:33:40;;;;;;;7.03;1.90;;;24.00;94.10;;;;;;5000355;28;20049;-78
2021/08/24 12:36:23;;;;;;;4.78;1.60;;;24.10;93.70;;;;;;5017717;28;20065;-79
2021/08/24 12:39:29;;;;;;;5.85;2.55;;;24.10;92.80;;;;;;4984254;28;20218;-78
2021/08/24 12:42:22;;;;;;;5.15;1.73;;;24.30;92.80;;;;;;4993809;28;20057;-78
2021/08/24 12:45:06;;;;;;;6.70;2.13;;;24.40;92.60;;;;;;4987258;28;20496;-79
2021/08/24 12:48:06;;;;;;;6.10;2.58;;;24.40;93.00;;;;;;5023553;28;20042;-77
2021/08/24 12:51:06;;;;;;;4.13;1.80;;;24.50;92.90;;;;;;5001713;28;20054;-78
2021/08/24 12:53:50;;;;;;;13.90;2.65;;;24.60;92.90;;;;;;5004368;28;20048;-78
2021/08/24 12:56:41;;;;;;;11.05;1.98;;;24.70;92.80;;;;;;5019106;28;20064;-78
2021/08/24 12:59:34;;;;;;;12.27;2.40;;;24.90;91.80;;;;;;5021923;28;20057;-79
2021/08/24 13:02:31;;;;;;;8.95;2.08;;;25.00;92.40;;;;;;5021068;28;20723;-78
2021/08/24 13:05:23;;;;;;;11.90;1.92;;;25.10;91.80;;;;;;5000021;28;20038;-79
2021/08/24 13:08:43;;;;;;;11.60;3.33;;;25.00;92.30;;;;;;5140455;22;20045;-79
2021/08/24 13:11:27;;;;;;;20.23;2.05;;;25.10;92.20;;;;;;4998959;28;20465;-78
2021/08/24 13:14:27;;;;;;;6.70;2.15;;;25.20;92.30;;;;;;5037672;28;20053;-79
2021/08/24 13:16:58;;;;;;;10.50;1.90;;;25.20;91.10;;;;;;5037374;28;20060;-77
2021/08/24 13:19:29;;;;;;;9.48;2.35;;;25.20;92.00;;;;;;5006745;28;20293;-78
2021/08/24 13:22:03;;;;;;;7.85;2.10;;;25.20;91.60;;;;;;5006364;28;20054;-77
2021/08/24 13:24:47;;;;;;;8.00;3.15;;;25.10;91.50;;;;;;4998842;28;20045;-78
2021/08/24 13:27:29;;;;;;;6.63;1.80;;;25.10;91.40;;;;;;5024531;28;20049;-80
2021/08/24 13:30:06;;;;;;;9.95;1.92;;;25.00;91.60;;;;;;5017779;28;20046;-76
2021/08/24 13:32:47;;;;;;;11.25;2.33;;;25.00;91.60;;;;;;5038348;28;20509;-77
2021/08/24 13:35:21;;;;;;;7.22;1.75;;;25.00;91.30;;;;;;5013391;28;20053;-77
2021/08/24 13:38:03;;;;;;;5.82;1.60;;;25.00;91.30;;;;;;5035689;28;20044;-77
2021/08/24 13:40:34;;;;;;;13.65;1.98;;;25.00;91.70;;;;;;5039698;28;20053;-79
2021/08/24 13:43:02;;;;;;;6.35;2.17;;;24.90;91.60;;;;;;5043394;28;20053;-79
2021/08/24 13:45:35;;;;;;;15.10;3.00;;;24.90;91.20;;;;;;5009092;28;20434;-78
2021/08/24 13:48:06;;;;;;;6.47;2.25;;;24.90;91.00;;;;;;5042218;28;20049;-79
2021/08/24 13:50:35;;;;;;;;;;;25.00;91.20;;;;;;5040628;28;20052;-76
2021/08/24 13:53:19;;;;;;;10.15;2.28;;;25.20;90.90;;;;;;5009313;28;19932;-78
2021/08/24 13:55:56;;;;;;;9.00;1.83;;;25.40;90.60;;;;;;5017817;28;20045;-78
2021/08/24 13:58:26;;;;;;;10.25;1.58;;;25.40;90.60;;;;;;5018187;28;20046;-78
2021/08/24 14:01:21;;;;;;;9.63;2.05;;;25.20;90.80;;;;;;5000587;28;20049;-78
2021/08/24 14:04:16;;;;;;;7.97;2.20;;;25.00;90.70;;;;;;5038309;28;20136;-78
2021/08/24 14:07:01;;;;;;;11.00;1.90;;;25.00;90.30;;;;;;5028336;28;20057;-77